createdAt,value
2018-03-16T00:00:20.970Z,11.27
2018-03-16T00:02:48.452Z,9.90
2018-03-16T00:05:16.353Z,10.00
2018-03-16T00:07:43.804Z,10.55
2018-03-16T00:10:11.267Z,12.98
2018-03-16T00:12:38.708Z,11.32
2018-03-16T00:15:06.181Z,12.45
2018-03-16T00:17:34.439Z,9.27
2018-03-16T00:20:01.892Z,11.02
2018-03-16T00:22:38.040Z,12.80
2018-03-16T00:25:05.494Z,11.73
2018-03-16T00:27:32.965Z,10.95
2018-03-16T00:30:00.389Z,10.50
2018-03-16T00:32:27.836Z,13.82
2018-03-16T00:34:55.268Z,10.35
2018-03-16T00:37:22.705Z,11.73
2018-03-16T00:39:50.137Z,14.48
2018-03-16T00:42:17.580Z,11.18
2018-03-16T00:44:45.428Z,12.43
2018-03-16T00:47:12.870Z,13.20
2018-03-16T00:49:40.292Z,14.52
2018-03-16T00:52:07.737Z,16.83
2018-03-16T00:54:35.168Z,16.35
2018-03-16T00:57:02.622Z,15.63
2018-03-16T00:59:30.048Z,21.62
2018-03-16T01:01:57.494Z,17.60
2018-03-16T01:04:24.920Z,15.13
2018-03-16T01:06:52.369Z,18.70
2018-03-16T01:09:19.790Z,17.65
2018-03-16T01:11:47.225Z,23.20
2018-03-16T01:14:14.665Z,15.63
2018-03-16T01:16:42.103Z,14.60
2018-03-16T01:19:09.539Z,21.05
2018-03-16T01:21:36.972Z,20.37
2018-03-16T01:24:04.440Z,19.52
2018-03-16T01:26:31.881Z,19.12
2018-03-16T01:28:59.310Z,22.25
2018-03-16T01:31:26.757Z,16.02
2018-03-16T01:33:54.193Z,19.02
2018-03-16T01:36:21.630Z,21.17
2018-03-16T01:38:49.456Z,14.77
2018-03-16T01:41:16.899Z,22.00
2018-03-16T01:43:44.334Z,25.55
2018-03-16T01:46:11.790Z,21.00
2018-03-16T01:48:39.216Z,21.10
2018-03-16T01:51:07.054Z,19.55
2018-03-16T01:53:34.488Z,19.80
2018-03-16T01:56:02.338Z,20.10
2018-03-16T01:58:29.844Z,21.12
2018-03-16T02:00:57.289Z,19.08
2018-03-16T02:03:24.718Z,19.60
2018-03-16T02:05:52.169Z,19.25
2018-03-16T02:08:19.603Z,22.80
2018-03-16T02:10:47.032Z,18.58
2018-03-16T02:13:14.481Z,21.73
2018-03-16T02:15:41.914Z,21.12
2018-03-16T02:18:09.377Z,26.85
2018-03-16T02:20:36.804Z,20.58
2018-03-16T02:23:04.244Z,17.87
2018-03-16T02:25:31.680Z,25.23
2018-03-16T02:27:59.516Z,16.67
2018-03-16T02:30:26.947Z,17.67
2018-03-16T02:32:54.396Z,17.67
2018-03-16T02:35:21.827Z,17.73
2018-03-16T02:37:49.832Z,20.48
2018-03-16T02:40:17.236Z,20.27
2018-03-16T02:42:44.689Z,16.45
2018-03-16T02:45:12.121Z,18.10
2018-03-16T02:47:39.586Z,18.12
2018-03-16T02:50:07.025Z,19.60
2018-03-16T02:52:34.469Z,19.25
2018-03-16T02:55:01.897Z,20.92
2018-03-16T02:57:30.403Z,18.37
2018-03-16T02:59:57.906Z,21.50
2018-03-16T03:02:25.424Z,18.42
2018-03-16T03:04:52.836Z,17.30
2018-03-16T03:07:20.274Z,18.25
2018-03-16T03:09:47.710Z,19.85
2018-03-16T03:12:15.142Z,19.45
2018-03-16T03:14:42.573Z,20.33
2018-03-16T03:17:10.011Z,20.20
2018-03-16T03:19:37.444Z,21.83
2018-03-16T03:22:04.900Z,21.65
2018-03-16T03:24:32.331Z,20.62
2018-03-16T03:26:59.768Z,18.35
2018-03-16T03:29:27.209Z,22.67
2018-03-16T03:31:54.648Z,22.62
2018-03-16T03:34:22.477Z,19.80
2018-03-16T03:36:49.916Z,18.83
2018-03-16T03:39:17.358Z,20.90
2018-03-16T03:41:44.834Z,22.17
2018-03-16T03:44:12.245Z,20.25
2018-03-16T03:46:40.086Z,22.67
2018-03-16T03:49:07.539Z,23.58
2018-03-16T03:51:34.972Z,24.30
2018-03-16T03:54:02.436Z,18.98
2018-03-16T03:56:29.884Z,23.83
2018-03-16T03:58:58.205Z,22.08
2018-03-16T04:01:25.655Z,22.85
2018-03-16T04:03:53.083Z,21.90
2018-03-16T04:06:20.527Z,18.48
2018-03-16T04:08:47.983Z,23.17
2018-03-16T04:11:15.411Z,22.42
2018-03-16T04:13:42.847Z,22.62
2018-03-16T04:16:10.681Z,25.35
2018-03-16T04:18:38.128Z,17.20
2018-03-16T04:21:05.562Z,20.90
2018-03-16T04:23:33.022Z,20.00
2018-03-16T04:26:00.471Z,17.75
2018-03-16T04:28:27.904Z,20.00
2018-03-16T04:30:55.742Z,24.15
2018-03-16T04:33:23.189Z,22.62
2018-03-16T04:35:50.674Z,19.12
2018-03-16T04:38:18.602Z,18.98
2018-03-16T04:40:46.057Z,21.15
2018-03-16T04:43:13.495Z,23.02
2018-03-16T04:45:40.929Z,19.87
2018-03-16T04:48:08.809Z,20.70
2018-03-16T04:50:36.236Z,20.55
2018-03-16T04:53:04.116Z,21.65
2018-03-16T04:55:31.576Z,24.65
2018-03-16T04:57:59.426Z,28.75
2018-03-16T05:00:26.852Z,21.12
2018-03-16T05:02:54.294Z,23.90
2018-03-16T05:05:21.728Z,16.08
2018-03-16T05:07:49.160Z,20.62
2018-03-16T05:10:16.628Z,22.33
2018-03-16T05:12:44.065Z,21.77
2018-03-16T05:15:11.505Z,18.87
2018-03-16T05:17:38.949Z,21.65
2018-03-16T05:20:06.374Z,24.17
2018-03-16T05:22:33.817Z,23.30
2018-03-16T05:25:01.237Z,23.65
2018-03-16T05:27:28.667Z,22.52
2018-03-16T05:29:56.098Z,20.37
2018-03-16T05:32:23.533Z,23.80
2018-03-16T05:34:51.007Z,24.67
2018-03-16T05:37:18.426Z,21.83
2018-03-16T05:39:45.870Z,24.20
2018-03-16T05:42:13.305Z,25.00
2018-03-16T05:44:40.732Z,23.30
2018-03-16T05:47:08.166Z,24.77
2018-03-16T05:49:35.994Z,24.20
2018-03-16T05:52:03.484Z,24.60
2018-03-16T05:54:31.317Z,23.75
2018-03-16T05:56:58.752Z,20.98
2018-03-16T05:59:26.206Z,21.62
2018-03-16T06:01:53.631Z,24.65
2018-03-16T06:04:21.053Z,23.87
2018-03-16T06:06:48.488Z,20.15
2018-03-16T06:09:15.941Z,24.63
2018-03-16T06:11:43.379Z,19.30
2018-03-16T06:14:10.821Z,22.70
2018-03-16T06:16:38.248Z,26.73
2018-03-16T06:19:06.085Z,24.73
2018-03-16T06:21:33.520Z,23.52
2018-03-16T06:24:00.989Z,26.70
2018-03-16T06:26:28.416Z,22.17
2018-03-16T06:28:55.850Z,26.30
2018-03-16T06:31:23.286Z,24.70
2018-03-16T06:33:50.766Z,24.05
2018-03-16T06:36:18.148Z,24.27
2018-03-16T06:38:45.580Z,16.95
2018-03-16T06:41:13.416Z,23.05
2018-03-16T06:43:40.841Z,22.83
2018-03-16T06:46:08.274Z,22.75
2018-03-16T06:48:35.709Z,20.92
2018-03-16T06:51:03.137Z,23.00
2018-03-16T06:53:30.577Z,22.30
2018-03-16T06:55:58.008Z,22.00
2018-03-16T06:58:25.440Z,21.23
2018-03-16T07:00:53.289Z,21.25
2018-03-16T07:03:20.754Z,24.37
2018-03-16T07:05:48.603Z,22.10
2018-03-16T07:08:16.032Z,20.58
2018-03-16T07:10:43.474Z,21.37
2018-03-16T07:13:10.915Z,16.87
2018-03-16T07:15:38.364Z,18.73
2018-03-16T07:18:05.800Z,15.18
2018-03-16T07:20:33.228Z,21.58
2018-03-16T07:23:00.669Z,19.80
2018-03-16T07:25:28.092Z,16.87
2018-03-16T07:27:55.535Z,15.45
2018-03-16T07:30:23.368Z,15.07
2018-03-16T07:32:50.867Z,16.70
2018-03-16T07:35:18.258Z,18.00
2018-03-16T07:37:45.698Z,15.60
2018-03-16T07:40:13.116Z,16.00
2018-03-16T07:42:40.557Z,15.90
2018-03-16T07:45:09.005Z,14.95
2018-03-16T07:47:36.504Z,16.80
2018-03-16T07:50:03.882Z,17.83
2018-03-16T07:52:31.704Z,18.40
2018-03-16T07:54:59.137Z,18.08
2018-03-16T07:57:26.581Z,16.20
2018-03-16T07:59:54.000Z,15.32
2018-03-16T08:02:21.820Z,17.00
2018-03-16T08:04:49.273Z,16.98
2018-03-16T08:07:16.708Z,16.70
2018-03-16T08:09:44.136Z,17.30
2018-03-16T08:12:11.959Z,19.50
2018-03-16T08:14:39.403Z,18.75
2018-03-16T08:17:07.246Z,19.70
2018-03-16T08:19:35.099Z,17.77
2018-03-16T08:22:02.912Z,20.55
2018-03-16T08:24:30.357Z,20.90
2018-03-16T08:26:57.785Z,18.92
2018-03-16T08:29:25.224Z,14.20
2018-03-16T08:31:53.050Z,18.20
2018-03-16T08:34:20.497Z,15.57
2018-03-16T08:36:47.924Z,17.42
2018-03-16T08:39:15.357Z,16.50
2018-03-16T08:41:43.181Z,18.20
2018-03-16T08:44:10.621Z,14.90
2018-03-16T08:46:38.065Z,15.30
2018-03-16T08:49:05.513Z,15.30
2018-03-16T08:51:32.944Z,13.60
2018-03-16T08:54:00.780Z,18.58
2018-03-16T08:56:28.204Z,16.42
2018-03-16T08:58:55.653Z,16.05
2018-03-16T09:01:23.089Z,17.73
2018-03-16T09:03:50.533Z,20.73
2018-03-16T09:06:17.973Z,20.92
2018-03-16T09:08:45.424Z,21.42
2018-03-16T09:11:12.962Z,20.15
2018-03-16T09:13:40.400Z,22.85
2018-03-16T09:16:07.857Z,20.15
2018-03-16T09:18:35.295Z,18.60
2018-03-16T09:21:02.726Z,16.60
2018-03-16T09:23:30.156Z,19.20
2018-03-16T09:25:57.600Z,15.55
2018-03-16T09:28:25.046Z,14.43
2018-03-16T09:30:52.457Z,17.67
2018-03-16T09:33:20.295Z,18.98
2018-03-16T09:35:47.722Z,14.90
2018-03-16T09:38:15.167Z,15.43
2018-03-16T09:40:42.632Z,10.77
2018-03-16T09:43:10.088Z,12.98
2018-03-16T09:45:37.500Z,13.50
2018-03-16T09:48:04.941Z,13.48
2018-03-16T09:50:45.845Z,12.52
2018-03-16T09:53:25.361Z,11.23
2018-03-16T09:55:52.795Z,10.88
2018-03-16T09:58:20.259Z,11.18
2018-03-16T10:00:47.688Z,11.35
2018-03-16T10:03:15.125Z,12.25
2018-03-16T10:05:42.548Z,13.32
2018-03-16T10:08:09.985Z,9.30
2018-03-16T10:10:37.409Z,7.35
2018-03-16T10:13:04.870Z,9.02
2018-03-16T10:15:32.300Z,9.45
2018-03-16T10:17:59.745Z,10.90
2018-03-16T10:20:27.564Z,11.00
2018-03-16T10:22:55.002Z,8.07
2018-03-16T10:25:22.424Z,10.15
2018-03-16T10:27:49.867Z,8.93
2018-03-16T10:30:17.296Z,8.00
2018-03-16T10:32:44.727Z,11.25
2018-03-16T10:35:12.178Z,10.07
2018-03-16T10:37:39.617Z,8.75
2018-03-16T10:40:07.157Z,9.20
2018-03-16T10:42:34.585Z,7.20
2018-03-16T10:45:02.024Z,9.77
2018-03-16T10:47:29.463Z,9.20
2018-03-16T10:49:56.900Z,7.32
2018-03-16T10:52:24.339Z,6.60
2018-03-16T10:54:52.171Z,9.10
2018-03-16T10:57:19.610Z,6.07
2018-03-16T10:59:47.042Z,6.97
2018-03-16T11:02:20.380Z,6.70
2018-03-16T11:04:53.524Z,6.15
2018-03-16T11:07:20.957Z,9.30
2018-03-16T11:09:48.802Z,7.27
2018-03-16T11:12:16.241Z,6.00
2018-03-16T11:14:43.679Z,6.40
2018-03-16T11:17:11.123Z,9.73
2018-03-16T11:19:38.564Z,8.80
2018-03-16T11:22:06.384Z,6.83
2018-03-16T11:24:33.828Z,5.80
2018-03-16T11:27:01.261Z,8.77
2018-03-16T11:29:28.732Z,6.10
2018-03-16T11:31:56.164Z,5.95
2018-03-16T11:34:23.600Z,6.83
2018-03-16T11:36:51.424Z,8.77
2018-03-16T11:39:18.870Z,6.10
2018-03-16T11:41:46.301Z,6.55
2018-03-16T11:44:13.738Z,5.47
2018-03-16T11:46:41.580Z,4.80
2018-03-16T11:49:09.032Z,6.77
2018-03-16T11:51:36.455Z,4.00
2018-03-16T11:54:03.886Z,4.70
2018-03-16T11:56:31.484Z,4.10
2018-03-16T11:58:58.933Z,3.20
2018-03-16T12:01:26.392Z,5.13
2018-03-16T12:03:53.823Z,3.50
2018-03-16T12:06:21.248Z,5.27
2018-03-16T12:08:48.684Z,3.90
2018-03-16T12:11:16.113Z,2.90
2018-03-16T12:13:43.543Z,6.53
2018-03-16T12:16:10.961Z,3.20
2018-03-16T12:18:38.405Z,4.17
2018-03-16T12:21:05.840Z,3.20
2018-03-16T12:23:33.274Z,3.07
2018-03-16T12:26:00.833Z,2.10
2018-03-16T12:28:49.210Z,5.93
2018-03-16T12:30:56.121Z,2.73
2018-03-16T12:33:23.533Z,3.35
2018-03-16T12:35:50.973Z,2.97
2018-03-16T12:38:18.400Z,3.10
2018-03-16T12:40:45.840Z,2.53
2018-03-16T12:43:13.288Z,3.77
2018-03-16T12:45:40.736Z,2.78
2018-03-16T12:48:08.499Z,3.65
2018-03-16T12:50:35.969Z,3.00
2018-03-16T12:53:03.405Z,2.90
2018-03-16T12:55:30.849Z,3.20
2018-03-16T12:57:58.281Z,3.35
2018-03-16T13:00:25.721Z,5.57
2018-03-16T13:02:53.149Z,2.87
2018-03-16T13:05:20.605Z,3.60
2018-03-16T13:07:48.039Z,3.43
2018-03-16T13:10:15.494Z,3.23
2018-03-16T13:12:42.928Z,2.60
2018-03-16T13:15:10.734Z,7.12
2018-03-16T13:17:38.161Z,3.65
2018-03-16T13:20:05.609Z,2.65
2018-03-16T13:22:33.048Z,2.83
2018-03-16T13:25:00.452Z,3.43
2018-03-16T13:27:27.933Z,2.23
2018-03-16T13:29:55.330Z,2.37
2018-03-16T13:32:22.766Z,2.33
2018-03-16T13:34:50.587Z,2.37
2018-03-16T13:37:18.021Z,2.55
2018-03-16T13:39:45.452Z,1.83
2018-03-16T13:42:12.881Z,2.23
2018-03-16T13:44:41.005Z,10.57
2018-03-16T13:47:08.437Z,12.10
2018-03-16T13:49:35.872Z,7.47
2018-03-16T13:52:03.304Z,6.50
2018-03-16T13:54:30.756Z,10.68
2018-03-16T13:56:58.189Z,9.93
2018-03-16T13:59:25.629Z,7.05
2018-03-16T14:01:53.066Z,14.60
2018-03-16T14:04:20.505Z,7.43
2018-03-16T14:06:48.330Z,11.48
2018-03-16T14:09:15.774Z,9.77
2018-03-16T14:11:43.201Z,9.43
2018-03-16T14:14:10.653Z,10.25
2018-03-16T14:16:38.477Z,9.07
2018-03-16T14:19:05.918Z,10.50
2018-03-16T14:21:33.337Z,10.75
2018-03-16T14:24:00.772Z,26.92
2018-03-16T14:26:28.602Z,14.70
2018-03-16T14:28:56.056Z,10.85
2018-03-16T14:31:23.476Z,13.27
2018-03-16T14:33:50.897Z,14.47
2018-03-16T14:36:18.338Z,11.88
2018-03-16T14:38:45.767Z,9.32
2018-03-16T14:41:13.209Z,11.25
2018-03-16T14:43:40.630Z,10.05
2018-03-16T14:46:08.471Z,9.05
2018-03-16T14:48:35.920Z,11.77
2018-03-16T14:51:03.353Z,10.85
2018-03-16T14:53:30.797Z,8.80
2018-03-16T14:55:58.254Z,14.43
2018-03-16T14:58:25.684Z,10.55
2018-03-16T15:00:53.124Z,12.57
2018-03-16T15:03:20.576Z,14.45
2018-03-16T15:05:48.008Z,10.35
2018-03-16T15:08:15.472Z,7.78
2018-03-16T15:10:42.864Z,9.55
2018-03-16T15:13:10.956Z,17.27
2018-03-16T15:15:38.384Z,8.20
2018-03-16T15:18:06.208Z,9.50
2018-03-16T15:20:34.102Z,8.27
2018-03-16T15:23:01.545Z,10.93
2018-03-16T15:25:29.010Z,11.52
2018-03-16T15:27:56.464Z,8.63
2018-03-16T15:30:23.936Z,9.27
2018-03-16T15:32:51.419Z,12.13
2018-03-16T15:35:20.374Z,22.65
2018-03-16T15:37:47.834Z,12.93
2018-03-16T15:40:15.307Z,10.38
2018-03-16T15:42:42.768Z,13.20
2018-03-16T15:45:10.228Z,9.10
2018-03-16T15:47:39.285Z,11.95
2018-03-16T15:50:08.221Z,10.35
2018-03-16T15:52:35.684Z,11.05
2018-03-16T15:55:04.148Z,11.77
2018-03-16T15:57:31.666Z,14.95
2018-03-16T15:59:59.278Z,8.43
2018-03-16T16:02:27.143Z,12.10
2018-03-16T16:04:55.679Z,9.13
2018-03-16T16:07:23.168Z,12.30
2018-03-16T16:09:50.680Z,14.57
2018-03-16T16:12:18.497Z,13.27
2018-03-16T16:14:47.713Z,13.73
2018-03-16T16:17:16.141Z,11.02
2018-03-16T16:19:43.589Z,14.13
2018-03-16T16:22:11.349Z,13.00
2018-03-16T16:24:39.255Z,11.20
2018-03-16T16:27:07.516Z,13.80
2018-03-16T16:29:35.118Z,13.45
2018-03-16T16:32:02.605Z,6.60
2018-03-16T16:34:30.980Z,11.27
2018-03-16T16:36:58.613Z,10.90
2018-03-16T16:39:26.483Z,11.15
2018-03-16T16:41:54.297Z,13.07
2018-03-16T16:44:21.722Z,14.10
2018-03-16T16:46:49.174Z,11.23
2018-03-16T16:49:16.609Z,7.97
2018-03-16T16:51:44.084Z,11.85
2018-03-16T16:54:11.460Z,10.80
2018-03-16T16:56:38.893Z,9.63
2018-03-16T16:59:06.321Z,12.05
2018-03-16T17:01:34.152Z,10.38
2018-03-16T17:04:01.574Z,11.10
2018-03-16T17:06:29.016Z,10.25
2018-03-16T17:08:56.897Z,9.00
2018-03-16T17:11:24.338Z,11.85
2018-03-16T17:13:51.884Z,11.88
2018-03-16T17:16:29.465Z,11.23
2018-03-16T17:18:56.889Z,7.90
2018-03-16T17:21:24.336Z,8.43
2018-03-16T17:23:51.769Z,7.97
2018-03-16T17:26:19.196Z,8.82
2018-03-16T17:28:46.625Z,13.30
2018-03-16T17:31:14.067Z,10.70
2018-03-16T17:33:41.497Z,9.57
2018-03-16T17:36:08.935Z,10.23
2018-03-16T17:38:36.765Z,10.57
2018-03-16T17:41:04.189Z,8.13
2018-03-16T17:43:31.627Z,12.75
2018-03-16T17:45:59.108Z,10.57
2018-03-16T17:48:26.669Z,9.38
2018-03-16T17:50:54.088Z,7.80
2018-03-16T17:53:21.513Z,10.70
2018-03-16T17:55:48.962Z,9.57
2018-03-16T17:58:16.410Z,10.68
2018-03-16T18:00:43.847Z,12.40
2018-03-16T18:03:11.269Z,9.13
2018-03-16T18:05:39.102Z,12.60
2018-03-16T18:08:06.561Z,10.82
2018-03-16T18:10:34.017Z,12.57
2018-03-16T18:13:01.441Z,9.82
2018-03-16T18:15:28.909Z,9.98
2018-03-16T18:17:56.366Z,13.05
2018-03-16T18:20:23.902Z,9.00
2018-03-16T18:22:51.358Z,9.38
2018-03-16T18:25:18.983Z,11.48
2018-03-16T18:27:46.419Z,4.95
2018-03-16T18:30:13.869Z,8.63
2018-03-16T18:32:41.297Z,9.25
2018-03-16T18:35:08.724Z,7.47
2018-03-16T18:37:36.148Z,5.80
2018-03-16T18:40:03.577Z,8.95
2018-03-16T18:42:31.099Z,5.62
2018-03-16T18:44:58.906Z,7.57
2018-03-16T18:47:26.352Z,8.07
2018-03-16T18:49:53.774Z,9.70
2018-03-16T18:52:21.668Z,8.55
2018-03-16T18:54:49.053Z,7.03
2018-03-16T18:57:16.481Z,8.30
2018-03-16T18:59:43.944Z,8.73
2018-03-16T19:02:11.389Z,7.12
2018-03-16T19:04:38.822Z,8.25
2018-03-16T19:07:07.034Z,7.22
2018-03-16T19:09:34.487Z,7.35
2018-03-16T19:12:01.921Z,5.85
2018-03-16T19:14:29.395Z,8.32
2018-03-16T19:16:56.886Z,7.70
2018-03-16T19:19:24.333Z,6.57
2018-03-16T19:21:51.761Z,9.63
2018-03-16T19:24:19.222Z,8.25
2018-03-16T19:26:46.657Z,7.28
2018-03-16T19:29:14.096Z,9.38
2018-03-16T19:31:41.923Z,10.02
2018-03-16T19:34:09.375Z,6.47
2018-03-16T19:36:36.826Z,11.50
2018-03-16T19:39:04.248Z,8.23
2018-03-16T19:41:31.694Z,6.12
2018-03-16T19:43:59.122Z,6.10
2018-03-16T19:46:26.560Z,5.45
2018-03-16T19:48:53.980Z,6.72
2018-03-16T19:51:21.424Z,6.05
2018-03-16T19:53:48.898Z,5.43
2018-03-16T19:56:16.328Z,5.40
2018-03-16T19:58:44.149Z,5.53
2018-03-16T20:01:11.575Z,5.82
2018-03-16T20:03:39.014Z,6.07
2018-03-16T20:06:06.437Z,4.80
2018-03-16T20:08:33.868Z,7.43
2018-03-16T20:11:01.312Z,5.03
2018-03-16T20:13:28.733Z,5.75
2018-03-16T20:15:57.181Z,7.10
2018-03-16T20:18:24.615Z,7.72
2018-03-16T20:20:52.033Z,4.85
2018-03-16T20:23:19.458Z,4.75
2018-03-16T20:25:46.895Z,6.05
2018-03-16T20:28:16.616Z,7.25
2018-03-16T20:30:44.061Z,6.35
2018-03-16T20:33:11.659Z,6.03
2018-03-16T20:35:39.493Z,6.75
2018-03-16T20:38:06.923Z,6.25
2018-03-16T20:40:34.363Z,5.82
2018-03-16T20:43:01.882Z,7.28
2018-03-16T20:45:29.336Z,6.12
2018-03-16T20:47:56.842Z,7.60
2018-03-16T20:50:24.259Z,6.28
2018-03-16T20:52:51.775Z,10.23
2018-03-16T20:55:19.243Z,8.40
2018-03-16T20:57:46.625Z,7.10
2018-03-16T21:00:14.071Z,5.72
2018-03-16T21:02:41.624Z,6.20
2018-03-16T21:05:09.029Z,7.32
2018-03-16T21:07:36.471Z,12.95
2018-03-16T21:10:04.373Z,10.68
2018-03-16T21:12:31.809Z,13.15
2018-03-16T21:14:59.221Z,7.53
2018-03-16T21:17:26.665Z,7.80
2018-03-16T21:19:54.123Z,11.45
2018-03-16T21:22:21.625Z,7.70
2018-03-16T21:24:49.425Z,10.35
2018-03-16T21:27:16.888Z,10.50
2018-03-16T21:29:44.320Z,8.07
2018-03-16T21:32:11.830Z,11.95
2018-03-16T21:34:39.243Z,8.07
2018-03-16T21:37:06.721Z,6.78
2018-03-16T21:39:34.228Z,11.48
2018-03-16T21:42:02.048Z,10.60
2018-03-16T21:44:29.464Z,9.38
2018-03-16T21:46:56.905Z,11.32
2018-03-16T21:49:24.738Z,10.35
2018-03-16T21:51:52.172Z,11.23
2018-03-16T21:54:20.435Z,10.70
2018-03-16T21:56:49.419Z,12.65
2018-03-16T21:59:16.868Z,14.05
2018-03-16T22:01:44.327Z,14.35
2018-03-16T22:04:11.759Z,11.73
2018-03-16T22:06:39.599Z,13.23
2018-03-16T22:09:07.038Z,13.35
2018-03-16T22:11:34.480Z,9.95
2018-03-16T22:14:01.922Z,13.82
2018-03-16T22:16:29.374Z,9.32
2018-03-16T22:18:57.205Z,7.93
2018-03-16T22:21:24.644Z,4.65
2018-03-16T22:23:52.082Z,12.60
2018-03-16T22:26:19.533Z,6.68
2018-03-16T22:28:47.693Z,11.93
2018-03-16T22:31:16.057Z,9.82
2018-03-16T22:33:43.495Z,7.28
2018-03-16T22:36:10.980Z,8.85
2018-03-16T22:38:38.412Z,8.32
2018-03-16T22:41:06.985Z,11.15
2018-03-16T22:43:34.419Z,19.75
2018-03-16T22:46:01.870Z,14.30
2018-03-16T22:48:29.309Z,12.23
2018-03-16T22:50:56.772Z,11.55
2018-03-16T22:53:24.213Z,8.90
2018-03-16T22:55:51.658Z,6.70
2018-03-16T22:58:19.095Z,12.57
2018-03-16T23:00:46.523Z,9.40
2018-03-16T23:03:14.905Z,9.15
2018-03-16T23:05:42.336Z,10.32
2018-03-16T23:08:09.798Z,10.07
2018-03-16T23:10:37.246Z,16.75
2018-03-16T23:13:04.717Z,13.23
2018-03-16T23:15:32.731Z,14.55
2018-03-16T23:18:00.427Z,9.60
2018-03-16T23:20:27.917Z,7.87
2018-03-16T23:22:55.340Z,10.43
2018-03-16T23:25:23.380Z,8.07
2018-03-16T23:27:50.849Z,6.65
2018-03-16T23:30:19.715Z,10.23
2018-03-16T23:32:47.159Z,16.62
2018-03-16T23:35:14.587Z,12.60
2018-03-16T23:37:42.033Z,8.13
2018-03-16T23:40:09.473Z,13.27
2018-03-16T23:42:36.904Z,12.60
2018-03-16T23:45:04.735Z,12.27
2018-03-16T23:47:32.861Z,10.20
2018-03-16T23:50:00.635Z,6.35
2018-03-16T23:52:28.101Z,15.00
2018-03-16T23:54:55.559Z,4.78
2018-03-16T23:57:23.773Z,12.90
2018-03-16T23:59:51.218Z,12.13
